createdAt,value
2023-03-22T00:00:28.050Z,9.38
2023-03-22T00:02:57.110Z,8.65
2023-03-22T00:05:24.518Z,9.30
2023-03-22T00:07:54.402Z,9.25
2023-03-22T00:10:21.623Z,9.30
2023-03-22T00:12:51.746Z,8.75
2023-03-22T00:15:19.941Z,9.40
2023-03-22T00:17:47.237Z,8.43
2023-03-22T00:20:14.406Z,9.15
2023-03-22T00:22:41.624Z,8.68
2023-03-22T00:25:09.184Z,8.60
2023-03-22T00:27:36.564Z,8.48
2023-03-22T00:30:05.885Z,8.48
2023-03-22T00:32:37.628Z,9.48
2023-03-22T00:35:06.092Z,8.13
2023-03-22T00:37:34.208Z,8.85
2023-03-22T00:40:01.726Z,9.75
2023-03-22T00:42:31.639Z,8.38
2023-03-22T00:44:58.822Z,10.00
2023-03-22T00:47:29.192Z,8.80
2023-03-22T00:50:00.266Z,9.90
2023-03-22T00:52:28.991Z,9.05
2023-03-22T00:54:57.448Z,9.02
2023-03-22T00:57:24.808Z,9.27
2023-03-22T00:59:54.066Z,9.75
2023-03-22T01:02:29.825Z,9.38
2023-03-22T01:05:00.060Z,8.80
2023-03-22T01:07:33.250Z,10.43
2023-03-22T01:10:04.583Z,10.43
2023-03-22T01:12:32.198Z,9.90
2023-03-22T01:14:59.320Z,10.60
2023-03-22T01:17:26.629Z,9.50
2023-03-22T01:19:54.020Z,8.95
2023-03-22T01:22:22.282Z,10.10
2023-03-22T01:24:50.499Z,9.77
2023-03-22T01:27:23.003Z,9.80
2023-03-22T01:29:51.006Z,11.98
2023-03-22T01:32:19.028Z,9.90
2023-03-22T01:34:49.246Z,10.40
2023-03-22T01:37:18.709Z,9.75
2023-03-22T01:39:49.625Z,10.35
2023-03-22T01:42:18.415Z,9.90
2023-03-22T01:45:15.149Z,9.73
2023-03-22T01:47:58.073Z,10.18
2023-03-22T01:50:26.475Z,10.05
2023-03-22T01:52:56.050Z,9.73
2023-03-22T01:55:33.801Z,9.70
2023-03-22T01:58:18.351Z,10.43
2023-03-22T02:00:59.781Z,11.55
2023-03-22T02:03:54.131Z,10.48
2023-03-22T02:06:30.136Z,9.75
2023-03-22T02:09:13.269Z,11.85
2023-03-22T02:11:59.054Z,10.45
2023-03-22T02:15:18.952Z,11.65
2023-03-22T02:18:21.342Z,9.85
2023-03-22T02:21:25.413Z,11.70
2023-03-22T02:24:17.483Z,10.25
2023-03-22T02:27:27.263Z,10.63
2023-03-22T02:30:27.886Z,10.00
2023-03-22T02:33:31.262Z,9.75
2023-03-22T02:36:19.197Z,11.10
2023-03-22T02:39:11.976Z,10.20
2023-03-22T02:41:47.023Z,11.07
2023-03-22T02:44:36.236Z,10.85
2023-03-22T02:47:42.467Z,11.25
2023-03-22T02:50:50.006Z,10.05
2023-03-22T02:53:40.972Z,10.65
2023-03-22T02:56:21.511Z,10.63
2023-03-22T02:59:00.042Z,10.63
2023-03-22T03:01:55.333Z,10.63
2023-03-22T03:04:28.991Z,11.50
2023-03-22T03:07:04.863Z,11.45
2023-03-22T03:09:33.741Z,10.77
2023-03-22T03:12:00.878Z,11.90
2023-03-22T03:14:31.054Z,11.65
2023-03-22T03:17:25.271Z,10.95
2023-03-22T03:20:08.317Z,11.10
2023-03-22T03:22:50.727Z,10.50
2023-03-22T03:25:33.200Z,11.05
2023-03-22T03:28:11.692Z,10.23
2023-03-22T03:31:03.891Z,11.35
2023-03-22T03:33:36.172Z,10.85
2023-03-22T03:36:10.883Z,10.68
2023-03-22T03:38:44.839Z,10.68
2023-03-22T03:41:16.637Z,10.57
2023-03-22T03:43:46.293Z,11.43
2023-03-22T03:46:13.975Z,11.38
2023-03-22T03:48:48.437Z,10.85
2023-03-22T03:51:15.657Z,11.70
2023-03-22T03:53:43.058Z,11.80
2023-03-22T03:56:11.267Z,11.25
2023-03-22T03:58:43.503Z,12.75
2023-03-22T04:01:11.190Z,12.00
2023-03-22T04:03:38.302Z,11.77
2023-03-22T04:06:28.103Z,11.82
2023-03-22T04:09:02.003Z,11.63
2023-03-22T04:11:33.079Z,11.82
2023-03-22T04:14:02.697Z,12.30
2023-03-22T04:16:29.985Z,10.60
2023-03-22T04:18:57.258Z,12.38
2023-03-22T04:21:24.515Z,12.00
2023-03-22T04:24:00.734Z,12.82
2023-03-22T04:26:31.305Z,12.35
2023-03-22T04:29:35.045Z,13.50
2023-03-22T04:34:53.543Z,13.10
2023-03-22T04:37:31.747Z,14.38
2023-03-22T04:40:16.707Z,15.63
2023-03-22T04:43:04.333Z,14.90
2023-03-22T04:48:22.350Z,17.15
2023-03-22T04:53:27.625Z,17.40
2023-03-22T04:56:00.036Z,15.60
2023-03-22T04:58:30.598Z,17.05
2023-03-22T05:00:58.741Z,18.65
2023-03-22T05:03:26.418Z,17.98
2023-03-22T05:05:56.985Z,16.25
2023-03-22T05:08:31.092Z,18.13
2023-03-22T05:11:04.546Z,18.35
2023-03-22T05:13:31.857Z,17.77
2023-03-22T05:15:59.971Z,18.98
2023-03-22T05:18:45.683Z,18.05
2023-03-22T05:21:22.262Z,18.08
2023-03-22T05:23:56.752Z,18.60
2023-03-22T05:26:26.407Z,17.25
2023-03-22T05:28:55.972Z,17.38
2023-03-22T05:31:38.668Z,16.98
2023-03-22T05:34:08.236Z,16.80
2023-03-22T05:36:37.747Z,17.00
2023-03-22T05:39:28.212Z,18.33
2023-03-22T05:42:01.824Z,17.02
2023-03-22T05:44:31.383Z,18.30
2023-03-22T05:47:12.166Z,17.13
2023-03-22T05:49:48.731Z,17.98
2023-03-22T05:52:16.429Z,15.90
2023-03-22T05:54:54.618Z,18.42
2023-03-22T05:57:25.139Z,17.65
2023-03-22T05:59:54.658Z,17.20
2023-03-22T06:02:28.704Z,17.38
2023-03-22T06:04:57.329Z,17.58
2023-03-22T06:07:32.592Z,18.05
2023-03-22T06:10:16.309Z,16.45
2023-03-22T06:12:44.020Z,16.98
2023-03-22T06:15:17.303Z,17.02
2023-03-22T06:17:56.338Z,16.50
2023-03-22T06:20:27.561Z,16.88
2023-03-22T06:23:04.087Z,18.05
2023-03-22T06:25:33.126Z,17.20
2023-03-22T06:28:03.881Z,16.60
2023-03-22T06:30:31.652Z,17.38
2023-03-22T06:33:17.531Z,17.95
2023-03-22T06:35:54.729Z,17.17
2023-03-22T06:38:34.164Z,17.55
2023-03-22T06:41:04.161Z,16.30
2023-03-22T06:43:31.428Z,19.10
2023-03-22T06:46:10.724Z,24.20
2023-03-22T06:48:46.093Z,18.23
2023-03-22T06:51:18.408Z,16.33
2023-03-22T06:53:46.590Z,17.42
2023-03-22T06:56:16.084Z,18.92
2023-03-22T06:58:52.057Z,18.63
2023-03-22T07:01:19.656Z,17.30
2023-03-22T07:03:47.533Z,17.98
2023-03-22T07:06:17.012Z,17.25
2023-03-22T07:08:50.827Z,16.33
2023-03-22T07:11:25.502Z,17.20
2023-03-22T07:13:58.380Z,17.00
2023-03-22T07:16:28.990Z,17.33
2023-03-22T07:18:59.421Z,17.08
2023-03-22T07:21:26.602Z,15.93
2023-03-22T07:24:02.166Z,17.67
2023-03-22T07:26:31.955Z,18.42
2023-03-22T07:29:00.282Z,15.93
2023-03-22T07:31:31.746Z,17.35
2023-03-22T07:34:01.814Z,17.90
2023-03-22T07:36:32.822Z,16.58
2023-03-22T07:39:00.491Z,17.42
2023-03-22T07:41:34.710Z,16.52
2023-03-22T07:44:40.360Z,18.10
2023-03-22T07:47:40.308Z,17.27
2023-03-22T07:50:28.218Z,18.35
2023-03-22T07:52:57.438Z,17.85
2023-03-22T07:55:24.717Z,16.63
2023-03-22T07:57:51.967Z,17.83
2023-03-22T08:00:20.147Z,17.63
2023-03-22T08:02:58.225Z,18.27
2023-03-22T08:05:45.701Z,19.05
2023-03-22T08:08:15.036Z,18.85
2023-03-22T08:10:42.237Z,18.75
2023-03-22T08:13:09.693Z,18.80
2023-03-22T08:15:39.041Z,18.70
2023-03-22T08:18:11.037Z,18.20
2023-03-22T08:20:40.756Z,17.52
2023-03-22T08:26:22.435Z,17.98
2023-03-22T08:28:52.530Z,18.92
2023-03-22T08:31:20.347Z,17.67
2023-03-22T08:33:47.907Z,19.15
2023-03-22T08:36:23.055Z,20.23
2023-03-22T08:39:00.983Z,20.00
2023-03-22T08:44:10.321Z,19.77
2023-03-22T08:46:37.356Z,17.50
2023-03-22T08:49:04.703Z,19.20
2023-03-22T08:51:36.133Z,20.38
2023-03-22T08:54:15.900Z,19.20
2023-03-22T08:57:09.730Z,16.58
2023-03-22T08:59:57.980Z,17.05
2023-03-22T09:02:44.571Z,17.55
2023-03-22T09:05:13.677Z,17.45
2023-03-22T09:07:42.561Z,16.92
2023-03-22T09:10:18.386Z,17.75
2023-03-22T09:12:48.072Z,18.85
2023-03-22T09:15:15.588Z,18.55
2023-03-22T09:17:46.916Z,16.85
2023-03-22T09:20:14.861Z,17.60
2023-03-22T09:22:44.113Z,18.30
2023-03-22T09:25:14.039Z,18.23
2023-03-22T09:27:43.996Z,16.85
2023-03-22T09:30:11.737Z,16.95
2023-03-22T09:32:39.710Z,17.30
2023-03-22T09:35:07.257Z,16.42
2023-03-22T09:37:45.868Z,16.23
2023-03-22T09:40:17.790Z,15.20
2023-03-22T09:42:50.044Z,15.02
2023-03-22T09:45:30.872Z,14.82
2023-03-22T09:47:59.895Z,15.48
2023-03-22T09:50:31.572Z,13.43
2023-03-22T09:53:01.990Z,12.80
2023-03-22T09:55:43.697Z,13.20
2023-03-22T09:58:24.346Z,12.68
2023-03-22T10:01:03.330Z,13.43
2023-03-22T10:03:33.980Z,12.27
2023-03-22T10:06:09.313Z,11.85
2023-03-22T10:09:14.171Z,13.30
2023-03-22T10:11:55.952Z,12.63
2023-03-22T10:14:45.603Z,13.10
2023-03-22T10:17:17.820Z,13.85
2023-03-22T10:19:51.125Z,14.75
2023-03-22T10:22:25.266Z,13.55
2023-03-22T10:24:58.249Z,13.27
2023-03-22T10:27:27.062Z,14.27
2023-03-22T10:29:56.930Z,13.85
2023-03-22T10:32:51.245Z,12.98
2023-03-22T10:35:23.869Z,10.65
2023-03-22T10:37:52.994Z,10.57
2023-03-22T10:40:27.305Z,11.50
2023-03-22T10:43:03.476Z,10.73
2023-03-22T10:45:34.096Z,9.90
2023-03-22T10:48:06.239Z,9.90
2023-03-22T10:50:37.073Z,9.95
2023-03-22T10:53:06.468Z,10.45
2023-03-22T10:55:39.343Z,9.95
2023-03-22T10:58:14.056Z,8.80
2023-03-22T11:01:05.051Z,9.73
2023-03-22T11:03:35.259Z,10.30
2023-03-22T11:06:07.641Z,8.90
2023-03-22T11:08:57.320Z,9.57
2023-03-22T11:11:32.727Z,10.60
2023-03-22T11:14:02.339Z,9.20
2023-03-22T11:16:31.907Z,10.27
2023-03-22T11:19:02.224Z,10.20
2023-03-22T11:21:33.587Z,10.25
2023-03-22T11:24:05.954Z,10.32
2023-03-22T11:26:45.311Z,9.68
2023-03-22T11:29:19.518Z,9.57
2023-03-22T11:31:56.094Z,9.20
2023-03-22T11:34:28.995Z,9.05
2023-03-22T11:37:02.125Z,8.50
2023-03-22T11:39:30.402Z,8.00
2023-03-22T11:42:01.711Z,6.88
2023-03-22T11:44:34.797Z,7.45
2023-03-22T11:47:04.590Z,8.63
2023-03-22T11:49:52.549Z,6.53
2023-03-22T11:52:24.498Z,5.97
2023-03-22T11:54:53.018Z,6.60
2023-03-22T11:57:34.207Z,6.90
2023-03-22T12:00:10.772Z,6.18
2023-03-22T12:02:52.604Z,5.53
2023-03-22T12:05:32.659Z,6.18
2023-03-22T12:08:02.173Z,6.65
2023-03-22T12:10:33.923Z,6.18
2023-03-22T12:13:07.482Z,6.35
2023-03-22T12:15:49.454Z,5.30
2023-03-22T12:18:24.665Z,5.30
2023-03-22T12:20:57.631Z,5.05
2023-03-22T12:23:27.596Z,5.47
2023-03-22T12:26:01.280Z,5.72
2023-03-22T12:28:50.223Z,5.00
2023-03-22T12:31:23.457Z,5.95
2023-03-22T12:34:16.480Z,5.60
2023-03-22T12:36:53.729Z,5.78
2023-03-22T12:39:30.359Z,5.97
2023-03-22T12:42:06.739Z,5.30
2023-03-22T12:47:13.500Z,4.93
2023-03-22T12:49:52.129Z,6.18
2023-03-22T12:52:45.858Z,5.38
2023-03-22T12:58:01.501Z,4.85
2023-03-22T13:00:53.937Z,4.50
2023-03-22T13:03:21.405Z,4.90
2023-03-22T13:05:50.472Z,4.93
2023-03-22T13:08:22.569Z,3.80
2023-03-22T13:11:01.819Z,3.25
2023-03-22T13:13:28.866Z,3.83
2023-03-22T13:15:56.031Z,3.80
2023-03-22T13:18:40.112Z,3.55
2023-03-22T13:21:26.777Z,3.40
2023-03-22T13:24:00.883Z,4.15
2023-03-22T13:26:47.914Z,4.05
2023-03-22T13:29:20.204Z,3.25
2023-03-22T13:31:58.521Z,4.22
2023-03-22T13:34:44.605Z,3.58
2023-03-22T13:37:30.424Z,3.20
2023-03-22T13:40:04.731Z,3.88
2023-03-22T13:42:39.134Z,3.28
2023-03-22T13:45:32.143Z,3.88
2023-03-22T13:48:28.863Z,3.80
2023-03-22T13:50:58.581Z,3.53
2023-03-22T13:53:30.977Z,3.53
2023-03-22T13:56:03.857Z,3.92
2023-03-22T13:58:36.464Z,4.80
2023-03-22T14:01:07.238Z,4.63
2023-03-22T14:03:42.491Z,4.03
2023-03-22T14:06:41.483Z,4.10
2023-03-22T14:09:21.278Z,4.22
2023-03-22T14:11:55.756Z,4.30
2023-03-22T14:14:31.397Z,4.30
2023-03-22T14:17:20.195Z,4.55
2023-03-22T14:19:49.109Z,5.25
